sensor_id;sensor_type;location;lat;lon;timestamp;P1;durP1;ratioP1;P2;durP2;ratioP2
55053;SDS011;40954;45.668;18.980;2022-10-16T00:00:40;12.55;;;10.07;;
55053;SDS011;40954;45.668;18.980;2022-10-16T00:03:06;14.60;;;9.90;;
55053;SDS011;40954;45.668;18.980;2022-10-16T00:05:33;15.20;;;9.73;;
55053;SDS011;40954;45.668;18.980;2022-10-16T00:08:03;14.10;;;9.80;;
55053;SDS011;40954;45.668;18.980;2022-10-16T00:10:29;17.20;;;10.68;;
55053;SDS011;40954;45.668;18.980;2022-10-16T00:12:55;16.10;;;10.02;;
55053;SDS011;40954;45.668;18.980;2022-10-16T00:15:21;11.52;;;9.80;;
55053;SDS011;40954;45.668;18.980;2022-10-16T00:17:47;12.40;;;9.60;;
55053;SDS011;40954;45.668;18.980;2022-10-16T00:20:13;14.65;;;9.65;;
55053;SDS011;40954;45.668;18.980;2022-10-16T00:22:39;14.07;;;9.70;;
55053;SDS011;40954;45.668;18.980;2022-10-16T00:25:05;15.98;;;10.48;;
55053;SDS011;40954;45.668;18.980;2022-10-16T00:27:32;13.27;;;9.60;;
55053;SDS011;40954;45.668;18.980;2022-10-16T00:29:58;15.73;;;9.40;;
55053;SDS011;40954;45.668;18.980;2022-10-16T00:32:24;20.23;;;9.88;;
55053;SDS011;40954;45.668;18.980;2022-10-16T00:34:50;12.18;;;9.23;;
55053;SDS011;40954;45.668;18.980;2022-10-16T00:37:19;12.75;;;9.95;;
55053;SDS011;40954;45.668;18.980;2022-10-16T00:39:45;15.82;;;9.95;;
55053;SDS011;40954;45.668;18.980;2022-10-16T00:42:15;14.50;;;10.00;;
55053;SDS011;40954;45.668;18.980;2022-10-16T00:47:12;15.50;;;9.85;;
55053;SDS011;40954;45.668;18.980;2022-10-16T00:49:39;13.70;;;10.05;;
55053;SDS011;40954;45.668;18.980;2022-10-16T00:52:05;15.43;;;10.07;;
55053;SDS011;40954;45.668;18.980;2022-10-16T00:54:32;16.48;;;10.20;;
55053;SDS011;40954;45.668;18.980;2022-10-16T00:57:03;14.25;;;9.43;;
55053;SDS011;40954;45.668;18.980;2022-10-16T00:59:34;15.05;;;10.57;;
55053;SDS011;40954;45.668;18.980;2022-10-16T01:02:01;17.10;;;9.73;;
55053;SDS011;40954;45.668;18.980;2022-10-16T01:04:29;17.00;;;9.93;;
55053;SDS011;40954;45.668;18.980;2022-10-16T01:12:14;19.67;;;11.23;;
55053;SDS011;40954;45.668;18.980;2022-10-16T01:14:55;17.13;;;10.68;;
55053;SDS011;40954;45.668;18.980;2022-10-16T01:17:45;15.15;;;10.48;;
55053;SDS011;40954;45.668;18.980;2022-10-16T01:25:19;17.58;;;10.10;;
55053;SDS011;40954;45.668;18.980;2022-10-16T01:27:48;12.88;;;9.45;;
55053;SDS011;40954;45.668;18.980;2022-10-16T01:30:18;14.35;;;10.43;;
55053;SDS011;40954;45.668;18.980;2022-10-16T01:32:47;11.60;;;9.87;;
55053;SDS011;40954;45.668;18.980;2022-10-16T01:35:19;17.25;;;9.73;;
55053;SDS011;40954;45.668;18.980;2022-10-16T01:40:18;14.27;;;9.88;;
55053;SDS011;40954;45.668;18.980;2022-10-16T01:42:49;13.52;;;10.10;;
55053;SDS011;40954;45.668;18.980;2022-10-16T01:45:16;13.20;;;10.57;;
55053;SDS011;40954;45.668;18.980;2022-10-16T01:47:44;14.10;;;9.30;;
55053;SDS011;40954;45.668;18.980;2022-10-16T01:50:11;15.38;;;10.43;;
55053;SDS011;40954;45.668;18.980;2022-10-16T01:52:40;15.38;;;10.85;;
55053;SDS011;40954;45.668;18.980;2022-10-16T01:55:07;15.07;;;10.20;;
55053;SDS011;40954;45.668;18.980;2022-10-16T01:57:35;15.13;;;10.32;;
55053;SDS011;40954;45.668;18.980;2022-10-16T02:00:05;13.68;;;9.93;;
55053;SDS011;40954;45.668;18.980;2022-10-16T02:02:32;16.52;;;10.82;;
55053;SDS011;40954;45.668;18.980;2022-10-16T02:05:08;16.25;;;10.63;;
55053;SDS011;40954;45.668;18.980;2022-10-16T02:07:36;14.73;;;10.05;;
55053;SDS011;40954;45.668;18.980;2022-10-16T02:10:02;14.07;;;10.52;;
55053;SDS011;40954;45.668;18.980;2022-10-16T02:12:30;18.60;;;11.13;;
55053;SDS011;40954;45.668;18.980;2022-10-16T02:14:57;15.35;;;10.90;;
55053;SDS011;40954;45.668;18.980;2022-10-16T02:17:23;15.95;;;10.55;;
55053;SDS011;40954;45.668;18.980;2022-10-16T02:19:50;13.13;;;10.80;;
55053;SDS011;40954;45.668;18.980;2022-10-16T02:22:21;14.45;;;10.05;;
55053;SDS011;40954;45.668;18.980;2022-10-16T02:29:55;15.55;;;10.70;;
55053;SDS011;40954;45.668;18.980;2022-10-16T02:32:24;13.25;;;9.52;;
55053;SDS011;40954;45.668;18.980;2022-10-16T02:34:53;13.55;;;9.25;;
55053;SDS011;40954;45.668;18.980;2022-10-16T02:37:20;13.55;;;9.52;;
55053;SDS011;40954;45.668;18.980;2022-10-16T02:39:46;14.40;;;9.15;;
55053;SDS011;40954;45.668;18.980;2022-10-16T02:42:13;10.63;;;8.70;;
55053;SDS011;40954;45.668;18.980;2022-10-16T02:44:39;17.85;;;9.43;;
55053;SDS011;40954;45.668;18.980;2022-10-16T02:47:05;15.20;;;10.20;;
55053;SDS011;40954;45.668;18.980;2022-10-16T02:49:31;12.30;;;9.00;;
55053;SDS011;40954;45.668;18.980;2022-10-16T02:51:57;12.38;;;8.75;;
55053;SDS011;40954;45.668;18.980;2022-10-16T02:54:23;13.98;;;9.50;;
55053;SDS011;40954;45.668;18.980;2022-10-16T02:56:49;11.88;;;9.63;;
55053;SDS011;40954;45.668;18.980;2022-10-16T02:59:15;14.45;;;9.38;;
55053;SDS011;40954;45.668;18.980;2022-10-16T03:01:41;14.95;;;9.63;;
55053;SDS011;40954;45.668;18.980;2022-10-16T03:04:07;11.10;;;8.80;;
55053;SDS011;40954;45.668;18.980;2022-10-16T03:06:34;14.20;;;9.27;;
55053;SDS011;40954;45.668;18.980;2022-10-16T03:09:00;15.07;;;9.55;;
55053;SDS011;40954;45.668;18.980;2022-10-16T03:11:26;11.02;;;9.25;;
55053;SDS011;40954;45.668;18.980;2022-10-16T03:13:53;16.85;;;9.10;;
55053;SDS011;40954;45.668;18.980;2022-10-16T03:16:19;14.25;;;9.57;;
55053;SDS011;40954;45.668;18.980;2022-10-16T03:18:48;13.30;;;9.65;;
55053;SDS011;40954;45.668;18.980;2022-10-16T03:21:15;15.00;;;9.00;;
55053;SDS011;40954;45.668;18.980;2022-10-16T03:23:41;15.02;;;10.10;;
55053;SDS011;40954;45.668;18.980;2022-10-16T03:26:07;11.95;;;9.68;;
55053;SDS011;40954;45.668;18.980;2022-10-16T03:28:33;13.02;;;9.48;;
55053;SDS011;40954;45.668;18.980;2022-10-16T03:30:59;13.38;;;9.63;;
55053;SDS011;40954;45.668;18.980;2022-10-16T03:33:25;11.38;;;8.40;;
55053;SDS011;40954;45.668;18.980;2022-10-16T03:35:52;19.38;;;10.38;;
55053;SDS011;40954;45.668;18.980;2022-10-16T03:38:18;11.75;;;9.85;;
55053;SDS011;40954;45.668;18.980;2022-10-16T03:40:44;11.73;;;9.23;;
55053;SDS011;40954;45.668;18.980;2022-10-16T03:43:10;11.73;;;9.10;;
55053;SDS011;40954;45.668;18.980;2022-10-16T03:45:36;16.77;;;10.20;;
55053;SDS011;40954;45.668;18.980;2022-10-16T03:48:03;17.30;;;9.82;;
55053;SDS011;40954;45.668;18.980;2022-10-16T03:50:29;11.75;;;9.52;;
55053;SDS011;40954;45.668;18.980;2022-10-16T03:52:55;13.82;;;9.55;;
55053;SDS011;40954;45.668;18.980;2022-10-16T03:55:21;16.15;;;9.15;;
55053;SDS011;40954;45.668;18.980;2022-10-16T03:57:47;15.93;;;10.60;;
55053;SDS011;40954;45.668;18.980;2022-10-16T04:00:13;14.63;;;10.38;;
55053;SDS011;40954;45.668;18.980;2022-10-16T04:02:39;16.38;;;10.70;;
55053;SDS011;40954;45.668;18.980;2022-10-16T04:05:06;13.20;;;10.00;;
55053;SDS011;40954;45.668;18.980;2022-10-16T04:07:32;12.35;;;9.80;;
55053;SDS011;40954;45.668;18.980;2022-10-16T04:09:58;15.13;;;9.73;;
55053;SDS011;40954;45.668;18.980;2022-10-16T04:12:25;14.48;;;10.13;;
55053;SDS011;40954;45.668;18.980;2022-10-16T04:14:51;11.77;;;9.52;;
55053;SDS011;40954;45.668;18.980;2022-10-16T04:17:17;11.98;;;9.60;;
55053;SDS011;40954;45.668;18.980;2022-10-16T04:19:43;14.60;;;9.57;;
55053;SDS011;40954;45.668;18.980;2022-10-16T04:22:09;11.70;;;9.52;;
55053;SDS011;40954;45.668;18.980;2022-10-16T04:24:35;12.27;;;9.27;;
55053;SDS011;40954;45.668;18.980;2022-10-16T04:27:01;14.60;;;9.57;;
55053;SDS011;40954;45.668;18.980;2022-10-16T04:29:27;12.18;;;9.05;;
55053;SDS011;40954;45.668;18.980;2022-10-16T04:31:53;11.90;;;9.02;;
55053;SDS011;40954;45.668;18.980;2022-10-16T04:34:19;14.25;;;10.00;;
55053;SDS011;40954;45.668;18.980;2022-10-16T04:36:48;16.65;;;9.55;;
55053;SDS011;40954;45.668;18.980;2022-10-16T04:39:14;17.75;;;9.88;;
55053;SDS011;40954;45.668;18.980;2022-10-16T04:41:40;12.15;;;8.70;;
55053;SDS011;40954;45.668;18.980;2022-10-16T04:44:06;13.77;;;10.05;;
55053;SDS011;40954;45.668;18.980;2022-10-16T04:46:33;12.45;;;9.52;;
55053;SDS011;40954;45.668;18.980;2022-10-16T04:48:59;14.13;;;8.95;;
55053;SDS011;40954;45.668;18.980;2022-10-16T04:51:25;13.98;;;10.43;;
55053;SDS011;40954;45.668;18.980;2022-10-16T04:53:52;14.18;;;10.52;;
55053;SDS011;40954;45.668;18.980;2022-10-16T04:56:19;14.00;;;10.80;;
55053;SDS011;40954;45.668;18.980;2022-10-16T04:58:46;14.90;;;10.48;;
55053;SDS011;40954;45.668;18.980;2022-10-16T05:01:12;13.20;;;9.90;;
55053;SDS011;40954;45.668;18.980;2022-10-16T05:03:38;18.38;;;10.35;;
55053;SDS011;40954;45.668;18.980;2022-10-16T05:06:05;13.35;;;10.10;;
55053;SDS011;40954;45.668;18.980;2022-10-16T05:08:31;13.80;;;10.00;;
55053;SDS011;40954;45.668;18.980;2022-10-16T05:10:57;12.65;;;9.82;;
55053;SDS011;40954;45.668;18.980;2022-10-16T05:13:24;15.05;;;10.25;;
55053;SDS011;40954;45.668;18.980;2022-10-16T05:15:50;13.27;;;9.77;;
55053;SDS011;40954;45.668;18.980;2022-10-16T05:18:16;17.15;;;10.00;;
55053;SDS011;40954;45.668;18.980;2022-10-16T05:20:42;18.52;;;10.05;;
55053;SDS011;40954;45.668;18.980;2022-10-16T05:23:08;15.57;;;9.70;;
55053;SDS011;40954;45.668;18.980;2022-10-16T05:25:37;13.77;;;9.85;;
55053;SDS011;40954;45.668;18.980;2022-10-16T05:28:03;11.65;;;9.15;;
55053;SDS011;40954;45.668;18.980;2022-10-16T05:30:29;12.70;;;9.43;;
55053;SDS011;40954;45.668;18.980;2022-10-16T05:32:55;10.88;;;9.23;;
55053;SDS011;40954;45.668;18.980;2022-10-16T05:35:21;11.88;;;10.10;;
55053;SDS011;40954;45.668;18.980;2022-10-16T05:37:47;12.00;;;9.15;;
55053;SDS011;40954;45.668;18.980;2022-10-16T05:40:14;13.45;;;9.23;;
55053;SDS011;40954;45.668;18.980;2022-10-16T05:42:41;15.30;;;9.05;;
55053;SDS011;40954;45.668;18.980;2022-10-16T05:45:08;16.08;;;11.15;;
55053;SDS011;40954;45.668;18.980;2022-10-16T05:47:35;16.35;;;12.57;;
55053;SDS011;40954;45.668;18.980;2022-10-16T05:50:01;14.18;;;10.23;;
55053;SDS011;40954;45.668;18.980;2022-10-16T05:52:29;17.05;;;10.75;;
55053;SDS011;40954;45.668;18.980;2022-10-16T05:54:55;15.18;;;10.93;;
55053;SDS011;40954;45.668;18.980;2022-10-16T05:57:21;20.17;;;12.98;;
55053;SDS011;40954;45.668;18.980;2022-10-16T05:59:47;21.15;;;15.93;;
55053;SDS011;40954;45.668;18.980;2022-10-16T06:02:13;24.95;;;18.13;;
55053;SDS011;40954;45.668;18.980;2022-10-16T06:04:39;23.83;;;17.67;;
55053;SDS011;40954;45.668;18.980;2022-10-16T06:07:06;22.85;;;16.55;;
55053;SDS011;40954;45.668;18.980;2022-10-16T06:09:32;21.13;;;15.63;;
55053;SDS011;40954;45.668;18.980;2022-10-16T06:11:58;20.73;;;15.25;;
55053;SDS011;40954;45.668;18.980;2022-10-16T06:14:24;13.88;;;11.70;;
55053;SDS011;40954;45.668;18.980;2022-10-16T06:16:50;17.73;;;11.88;;
55053;SDS011;40954;45.668;18.980;2022-10-16T06:19:16;16.67;;;11.82;;
55053;SDS011;40954;45.668;18.980;2022-10-16T06:21:43;18.38;;;11.40;;
55053;SDS011;40954;45.668;18.980;2022-10-16T06:24:09;14.65;;;10.40;;
55053;SDS011;40954;45.668;18.980;2022-10-16T06:26:35;13.82;;;10.07;;
55053;SDS011;40954;45.668;18.980;2022-10-16T06:29:02;16.02;;;10.60;;
55053;SDS011;40954;45.668;18.980;2022-10-16T06:31:28;16.05;;;11.18;;
55053;SDS011;40954;45.668;18.980;2022-10-16T06:33:56;14.00;;;9.65;;
55053;SDS011;40954;45.668;18.980;2022-10-16T06:36:22;11.82;;;9.43;;
55053;SDS011;40954;45.668;18.980;2022-10-16T06:38:49;17.00;;;9.52;;
55053;SDS011;40954;45.668;18.980;2022-10-16T06:41:16;13.40;;;9.45;;
55053;SDS011;40954;45.668;18.980;2022-10-16T06:43:42;15.65;;;9.48;;
55053;SDS011;40954;45.668;18.980;2022-10-16T06:46:12;15.25;;;9.25;;
55053;SDS011;40954;45.668;18.980;2022-10-16T06:48:39;13.32;;;9.07;;
55053;SDS011;40954;45.668;18.980;2022-10-16T06:51:05;13.00;;;9.60;;
55053;SDS011;40954;45.668;18.980;2022-10-16T06:53:33;11.15;;;9.23;;
55053;SDS011;40954;45.668;18.980;2022-10-16T06:56:16;13.05;;;9.32;;
55053;SDS011;40954;45.668;18.980;2022-10-16T06:58:42;16.63;;;9.98;;
55053;SDS011;40954;45.668;18.980;2022-10-16T07:01:09;14.57;;;10.18;;
55053;SDS011;40954;45.668;18.980;2022-10-16T07:03:36;13.65;;;10.48;;
55053;SDS011;40954;45.668;18.980;2022-10-16T07:06:03;15.60;;;9.50;;
55053;SDS011;40954;45.668;18.980;2022-10-16T07:08:36;12.23;;;10.25;;
55053;SDS011;40954;45.668;18.980;2022-10-16T07:11:06;11.77;;;9.65;;
55053;SDS011;40954;45.668;18.980;2022-10-16T07:13:34;18.27;;;10.77;;
55053;SDS011;40954;45.668;18.980;2022-10-16T07:18:32;16.98;;;11.07;;
55053;SDS011;40954;45.668;18.980;2022-10-16T07:25:56;15.93;;;10.38;;
55053;SDS011;40954;45.668;18.980;2022-10-16T07:28:22;13.75;;;11.18;;
55053;SDS011;40954;45.668;18.980;2022-10-16T07:30:48;33.53;;;17.50;;
55053;SDS011;40954;45.668;18.980;2022-10-16T07:33:14;17.20;;;13.65;;
55053;SDS011;40954;45.668;18.980;2022-10-16T07:35:47;21.98;;;11.50;;
55053;SDS011;40954;45.668;18.980;2022-10-16T07:38:13;13.63;;;11.07;;
55053;SDS011;40954;45.668;18.980;2022-10-16T07:40:39;15.40;;;10.73;;
55053;SDS011;40954;45.668;18.980;2022-10-16T07:43:05;27.33;;;17.85;;
55053;SDS011;40954;45.668;18.980;2022-10-16T07:45:31;22.27;;;15.50;;
55053;SDS011;40954;45.668;18.980;2022-10-16T07:47:57;15.68;;;12.52;;
55053;SDS011;40954;45.668;18.980;2022-10-16T07:50:23;13.93;;;11.80;;
55053;SDS011;40954;45.668;18.980;2022-10-16T07:52:49;16.00;;;12.13;;
55053;SDS011;40954;45.668;18.980;2022-10-16T07:55:16;16.98;;;12.85;;
55053;SDS011;40954;45.668;18.980;2022-10-16T07:57:42;18.50;;;14.10;;
55053;SDS011;40954;45.668;18.980;2022-10-16T08:00:08;18.80;;;13.40;;
55053;SDS011;40954;45.668;18.980;2022-10-16T08:02:38;14.07;;;11.90;;
55053;SDS011;40954;45.668;18.980;2022-10-16T08:05:05;14.60;;;11.05;;
55053;SDS011;40954;45.668;18.980;2022-10-16T08:07:31;16.63;;;11.35;;
55053;SDS011;40954;45.668;18.980;2022-10-16T08:09:57;20.30;;;12.50;;
55053;SDS011;40954;45.668;18.980;2022-10-16T08:12:24;23.67;;;14.35;;
55053;SDS011;40954;45.668;18.980;2022-10-16T08:14:50;15.27;;;11.02;;
55053;SDS011;40954;45.668;18.980;2022-10-16T08:17:16;16.70;;;11.73;;
55053;SDS011;40954;45.668;18.980;2022-10-16T08:19:45;14.85;;;11.70;;
55053;SDS011;40954;45.668;18.980;2022-10-16T08:22:12;21.50;;;12.68;;
55053;SDS011;40954;45.668;18.980;2022-10-16T08:24:38;15.65;;;10.98;;
55053;SDS011;40954;45.668;18.980;2022-10-16T08:27:04;15.50;;;11.02;;
55053;SDS011;40954;45.668;18.980;2022-10-16T08:29:31;16.50;;;12.02;;
55053;SDS011;40954;45.668;18.980;2022-10-16T08:31:57;14.93;;;10.23;;
55053;SDS011;40954;45.668;18.980;2022-10-16T08:34:24;11.45;;;8.77;;
55053;SDS011;40954;45.668;18.980;2022-10-16T08:36:52;11.52;;;9.13;;
55053;SDS011;40954;45.668;18.980;2022-10-16T08:39:19;13.80;;;10.52;;
55053;SDS011;40954;45.668;18.980;2022-10-16T08:42:28;12.25;;;9.70;;
55053;SDS011;40954;45.668;18.980;2022-10-16T08:47:19;10.15;;;8.43;;
55053;SDS011;40954;45.668;18.980;2022-10-16T08:49:56;12.95;;;9.05;;
55053;SDS011;40954;45.668;18.980;2022-10-16T08:52:25;15.02;;;9.73;;
55053;SDS011;40954;45.668;18.980;2022-10-16T08:54:58;10.15;;;9.02;;
55053;SDS011;40954;45.668;18.980;2022-10-16T08:57:25;17.35;;;11.65;;
55053;SDS011;40954;45.668;18.980;2022-10-16T08:59:55;9.15;;;7.18;;
55053;SDS011;40954;45.668;18.980;2022-10-16T09:02:37;9.60;;;7.63;;
55053;SDS011;40954;45.668;18.980;2022-10-16T09:16:53;19.45;;;10.57;;
55053;SDS011;40954;45.668;18.980;2022-10-16T09:22:14;9.85;;;7.60;;
55053;SDS011;40954;45.668;18.980;2022-10-16T09:24:41;12.55;;;7.93;;
55053;SDS011;40954;45.668;18.980;2022-10-16T09:27:11;10.63;;;8.20;;
55053;SDS011;40954;45.668;18.980;2022-10-16T09:29:38;14.25;;;8.27;;
55053;SDS011;40954;45.668;18.980;2022-10-16T09:32:11;11.40;;;7.28;;
55053;SDS011;40954;45.668;18.980;2022-10-16T09:34:42;13.82;;;8.52;;
55053;SDS011;40954;45.668;18.980;2022-10-16T09:37:13;13.40;;;7.95;;
55053;SDS011;40954;45.668;18.980;2022-10-16T09:39:46;9.30;;;7.63;;
55053;SDS011;40954;45.668;18.980;2022-10-16T09:42:19;11.45;;;8.15;;
55053;SDS011;40954;45.668;18.980;2022-10-16T09:44:55;11.98;;;7.90;;
55053;SDS011;40954;45.668;18.980;2022-10-16T09:47:26;12.05;;;7.90;;
55053;SDS011;40954;45.668;18.980;2022-10-16T09:50:01;12.30;;;7.97;;
55053;SDS011;40954;45.668;18.980;2022-10-16T09:52:44;12.05;;;7.10;;
55053;SDS011;40954;45.668;18.980;2022-10-16T09:55:14;10.95;;;7.88;;
55053;SDS011;40954;45.668;18.980;2022-10-16T09:57:51;12.95;;;8.10;;
55053;SDS011;40954;45.668;18.980;2022-10-16T10:00:18;15.98;;;11.45;;
55053;SDS011;40954;45.668;18.980;2022-10-16T10:02:45;9.43;;;7.50;;
55053;SDS011;40954;45.668;18.980;2022-10-16T10:05:47;8.40;;;6.50;;
55053;SDS011;40954;45.668;18.980;2022-10-16T10:08:03;13.50;;;6.78;;
55053;SDS011;40954;45.668;18.980;2022-10-16T10:10:32;11.38;;;7.30;;
55053;SDS011;40954;45.668;18.980;2022-10-16T10:12:58;11.98;;;8.35;;
55053;SDS011;40954;45.668;18.980;2022-10-16T10:15:24;10.15;;;8.63;;
55053;SDS011;40954;45.668;18.980;2022-10-16T10:17:53;8.25;;;7.13;;
55053;SDS011;40954;45.668;18.980;2022-10-16T10:20:32;7.82;;;6.78;;
55053;SDS011;40954;45.668;18.980;2022-10-16T10:22:59;9.80;;;7.15;;
55053;SDS011;40954;45.668;18.980;2022-10-16T10:30:45;9.35;;;5.93;;
55053;SDS011;40954;45.668;18.980;2022-10-16T10:36:01;9.65;;;6.78;;
55053;SDS011;40954;45.668;18.980;2022-10-16T10:46:03;7.78;;;5.35;;
55053;SDS011;40954;45.668;18.980;2022-10-16T10:51:09;7.65;;;5.63;;
55053;SDS011;40954;45.668;18.980;2022-10-16T10:53:44;11.20;;;9.80;;
55053;SDS011;40954;45.668;18.980;2022-10-16T10:59:01;7.25;;;5.18;;
55053;SDS011;40954;45.668;18.980;2022-10-16T11:04:03;8.63;;;5.00;;
55053;SDS011;40954;45.668;18.980;2022-10-16T11:06:38;9.05;;;7.97;;
55053;SDS011;40954;45.668;18.980;2022-10-16T11:09:16;14.77;;;5.13;;
55053;SDS011;40954;45.668;18.980;2022-10-16T11:12:06;10.88;;;6.00;;
55053;SDS011;40954;45.668;18.980;2022-10-16T11:17:04;5.68;;;4.28;;
55053;SDS011;40954;45.668;18.980;2022-10-16T11:19:40;7.40;;;5.38;;
55053;SDS011;40954;45.668;18.980;2022-10-16T11:24:46;10.60;;;8.27;;
55053;SDS011;40954;45.668;18.980;2022-10-16T11:27:15;8.40;;;4.95;;
55053;SDS011;40954;45.668;18.980;2022-10-16T11:29:50;8.02;;;4.68;;
55053;SDS011;40954;45.668;18.980;2022-10-16T11:32:22;5.97;;;4.70;;
55053;SDS011;40954;45.668;18.980;2022-10-16T11:34:54;6.47;;;4.55;;
55053;SDS011;40954;45.668;18.980;2022-10-16T11:37:32;5.72;;;5.00;;
55053;SDS011;40954;45.668;18.980;2022-10-16T11:40:04;6.93;;;4.57;;
55053;SDS011;40954;45.668;18.980;2022-10-16T11:42:40;8.50;;;6.82;;
55053;SDS011;40954;45.668;18.980;2022-10-16T11:55:29;6.38;;;4.63;;
55053;SDS011;40954;45.668;18.980;2022-10-16T12:01:10;6.25;;;4.65;;
55053;SDS011;40954;45.668;18.980;2022-10-16T12:08:26;8.38;;;4.32;;
55053;SDS011;40954;45.668;18.980;2022-10-16T12:10:52;8.57;;;4.03;;
55053;SDS011;40954;45.668;18.980;2022-10-16T12:13:33;8.82;;;4.53;;
55053;SDS011;40954;45.668;18.980;2022-10-16T12:18:32;7.53;;;4.00;;
55053;SDS011;40954;45.668;18.980;2022-10-16T12:20:58;4.72;;;4.20;;
55053;SDS011;40954;45.668;18.980;2022-10-16T12:23:29;6.10;;;4.00;;
55053;SDS011;40954;45.668;18.980;2022-10-16T12:25:56;5.40;;;3.55;;
55053;SDS011;40954;45.668;18.980;2022-10-16T12:28:26;8.80;;;4.65;;
55053;SDS011;40954;45.668;18.980;2022-10-16T12:30:57;4.15;;;3.75;;
55053;SDS011;40954;45.668;18.980;2022-10-16T12:33:24;6.63;;;4.28;;
55053;SDS011;40954;45.668;18.980;2022-10-16T12:35:51;3.85;;;3.47;;
55053;SDS011;40954;45.668;18.980;2022-10-16T12:40:59;5.10;;;3.42;;
55053;SDS011;40954;45.668;18.980;2022-10-16T12:43:27;6.15;;;3.70;;
55053;SDS011;40954;45.668;18.980;2022-10-16T12:46:20;7.00;;;3.88;;
55053;SDS011;40954;45.668;18.980;2022-10-16T12:48:47;4.38;;;3.28;;
55053;SDS011;40954;45.668;18.980;2022-10-16T12:53:45;4.55;;;3.60;;
55053;SDS011;40954;45.668;18.980;2022-10-16T12:56:15;5.80;;;3.47;;
55053;SDS011;40954;45.668;18.980;2022-10-16T13:04:04;4.18;;;3.78;;
55053;SDS011;40954;45.668;18.980;2022-10-16T13:06:51;6.57;;;4.07;;
55053;SDS011;40954;45.668;18.980;2022-10-16T13:09:21;3.72;;;3.42;;
55053;SDS011;40954;45.668;18.980;2022-10-16T13:14:30;8.30;;;3.88;;
55053;SDS011;40954;45.668;18.980;2022-10-16T13:27:48;4.03;;;3.40;;
55053;SDS011;40954;45.668;18.980;2022-10-16T13:32:50;4.93;;;3.78;;
55053;SDS011;40954;45.668;18.980;2022-10-16T13:35:19;4.55;;;3.20;;
55053;SDS011;40954;45.668;18.980;2022-10-16T13:37:45;8.32;;;3.60;;
55053;SDS011;40954;45.668;18.980;2022-10-16T13:40:17;4.28;;;3.88;;
55053;SDS011;40954;45.668;18.980;2022-10-16T13:42:44;4.70;;;3.65;;
55053;SDS011;40954;45.668;18.980;2022-10-16T13:45:20;4.85;;;3.90;;
55053;SDS011;40954;45.668;18.980;2022-10-16T13:47:46;6.75;;;3.83;;
55053;SDS011;40954;45.668;18.980;2022-10-16T13:50:13;6.03;;;3.95;;
55053;SDS011;40954;45.668;18.980;2022-10-16T13:52:39;5.97;;;3.90;;
55053;SDS011;40954;45.668;18.980;2022-10-16T13:55:24;5.63;;;3.40;;
55053;SDS011;40954;45.668;18.980;2022-10-16T13:57:50;7.43;;;4.22;;
55053;SDS011;40954;45.668;18.980;2022-10-16T14:02:45;8.37;;;4.03;;
55053;SDS011;40954;45.668;18.980;2022-10-16T14:05:16;6.25;;;3.90;;
55053;SDS011;40954;45.668;18.980;2022-10-16T14:07:42;5.93;;;4.07;;
55053;SDS011;40954;45.668;18.980;2022-10-16T14:10:25;4.88;;;4.10;;
55053;SDS011;40954;45.668;18.980;2022-10-16T14:13:04;4.95;;;3.88;;
55053;SDS011;40954;45.668;18.980;2022-10-16T14:15:32;8.68;;;3.90;;
55053;SDS011;40954;45.668;18.980;2022-10-16T14:18:00;11.23;;;4.25;;
55053;SDS011;40954;45.668;18.980;2022-10-16T14:20:28;6.32;;;4.80;;
55053;SDS011;40954;45.668;18.980;2022-10-16T14:22:59;9.80;;;4.22;;
55053;SDS011;40954;45.668;18.980;2022-10-16T14:25:27;8.73;;;3.75;;
55053;SDS011;40954;45.668;18.980;2022-10-16T14:27:57;5.40;;;3.47;;
55053;SDS011;40954;45.668;18.980;2022-10-16T14:32:54;4.68;;;3.80;;
55053;SDS011;40954;45.668;18.980;2022-10-16T14:37:54;6.85;;;3.83;;
55053;SDS011;40954;45.668;18.980;2022-10-16T14:40:22;4.07;;;3.67;;
55053;SDS011;40954;45.668;18.980;2022-10-16T14:42:48;4.53;;;3.53;;
55053;SDS011;40954;45.668;18.980;2022-10-16T14:45:18;6.85;;;4.05;;
55053;SDS011;40954;45.668;18.980;2022-10-16T14:47:48;4.10;;;3.80;;
55053;SDS011;40954;45.668;18.980;2022-10-16T14:50:15;3.97;;;3.60;;
55053;SDS011;40954;45.668;18.980;2022-10-16T14:52:41;8.57;;;3.88;;
55053;SDS011;40954;45.668;18.980;2022-10-16T14:55:08;9.13;;;3.78;;
55053;SDS011;40954;45.668;18.980;2022-10-16T14:57:35;5.93;;;3.63;;
55053;SDS011;40954;45.668;18.980;2022-10-16T15:00:02;5.55;;;3.70;;
55053;SDS011;40954;45.668;18.980;2022-10-16T15:02:29;5.70;;;3.75;;
55053;SDS011;40954;45.668;18.980;2022-10-16T15:04:56;5.32;;;3.70;;
55053;SDS011;40954;45.668;18.980;2022-10-16T15:07:22;8.15;;;3.88;;
55053;SDS011;40954;45.668;18.980;2022-10-16T15:09:49;10.63;;;4.05;;
55053;SDS011;40954;45.668;18.980;2022-10-16T15:12:15;8.55;;;4.68;;
55053;SDS011;40954;45.668;18.980;2022-10-16T15:14:41;7.32;;;3.83;;
55053;SDS011;40954;45.668;18.980;2022-10-16T15:17:09;5.93;;;4.10;;
55053;SDS011;40954;45.668;18.980;2022-10-16T15:19:35;5.05;;;4.30;;
55053;SDS011;40954;45.668;18.980;2022-10-16T15:22:01;5.90;;;4.25;;
55053;SDS011;40954;45.668;18.980;2022-10-16T15:24:27;7.75;;;5.10;;
55053;SDS011;40954;45.668;18.980;2022-10-16T15:26:53;5.25;;;4.75;;
55053;SDS011;40954;45.668;18.980;2022-10-16T15:29:19;6.72;;;5.78;;
55053;SDS011;40954;45.668;18.980;2022-10-16T15:31:45;9.30;;;4.90;;
55053;SDS011;40954;45.668;18.980;2022-10-16T15:34:12;7.72;;;4.93;;
55053;SDS011;40954;45.668;18.980;2022-10-16T15:36:39;7.03;;;5.30;;
55053;SDS011;40954;45.668;18.980;2022-10-16T15:39:06;8.95;;;6.60;;
55053;SDS011;40954;45.668;18.980;2022-10-16T15:41:36;8.98;;;7.07;;
55053;SDS011;40954;45.668;18.980;2022-10-16T15:44:02;13.52;;;7.70;;
55053;SDS011;40954;45.668;18.980;2022-10-16T15:46:28;10.90;;;7.05;;
55053;SDS011;40954;45.668;18.980;2022-10-16T15:48:56;11.90;;;7.60;;
55053;SDS011;40954;45.668;18.980;2022-10-16T15:51:22;14.35;;;7.78;;
55053;SDS011;40954;45.668;18.980;2022-10-16T15:53:48;13.15;;;8.55;;
55053;SDS011;40954;45.668;18.980;2022-10-16T15:56:16;13.70;;;8.27;;
55053;SDS011;40954;45.668;18.980;2022-10-16T15:58:42;11.85;;;9.10;;
55053;SDS011;40954;45.668;18.980;2022-10-16T16:01:09;11.80;;;8.65;;
55053;SDS011;40954;45.668;18.980;2022-10-16T16:03:36;13.32;;;9.80;;
55053;SDS011;40954;45.668;18.980;2022-10-16T16:06:06;10.63;;;9.07;;
55053;SDS011;40954;45.668;18.980;2022-10-16T16:08:32;15.63;;;10.23;;
55053;SDS011;40954;45.668;18.980;2022-10-16T16:11:17;16.25;;;10.98;;
55053;SDS011;40954;45.668;18.980;2022-10-16T16:13:43;18.67;;;11.27;;
55053;SDS011;40954;45.668;18.980;2022-10-16T16:16:10;18.98;;;13.30;;
55053;SDS011;40954;45.668;18.980;2022-10-16T16:18:37;26.75;;;14.93;;
55053;SDS011;40954;45.668;18.980;2022-10-16T16:21:03;35.78;;;20.65;;
55053;SDS011;40954;45.668;18.980;2022-10-16T16:23:29;59.08;;;30.33;;
55053;SDS011;40954;45.668;18.980;2022-10-16T16:26:02;39.85;;;24.88;;
55053;SDS011;40954;45.668;18.980;2022-10-16T16:28:28;33.50;;;20.83;;
55053;SDS011;40954;45.668;18.980;2022-10-16T16:30:55;27.33;;;18.13;;
55053;SDS011;40954;45.668;18.980;2022-10-16T16:33:21;28.80;;;15.63;;
55053;SDS011;40954;45.668;18.980;2022-10-16T16:35:47;24.85;;;14.82;;